createdAt,value
2022-12-14T00:01:56.913Z,45.72
2022-12-14T00:04:26.489Z,43.80
2022-12-14T00:06:54.726Z,45.30
2022-12-14T00:09:22.982Z,43.50
2022-12-14T00:11:51.203Z,41.45
2022-12-14T00:14:19.397Z,41.22
2022-12-14T00:16:48.332Z,41.60
2022-12-14T00:19:16.799Z,41.28
2022-12-14T00:21:46.701Z,40.53
2022-12-14T00:24:15.068Z,40.33
2022-12-14T00:26:43.606Z,39.38
2022-12-14T00:29:11.876Z,38.58
2022-12-14T00:31:40.159Z,32.30
2022-12-14T00:34:08.265Z,35.13
2022-12-14T00:36:37.761Z,34.95
2022-12-14T00:39:07.325Z,34.72
2022-12-14T00:41:35.540Z,35.08
2022-12-14T00:44:03.788Z,35.65
2022-12-14T00:46:32.004Z,34.60
2022-12-14T00:49:00.161Z,33.92
2022-12-14T00:51:28.608Z,32.88
2022-12-14T00:53:56.893Z,34.47
2022-12-14T00:56:26.977Z,33.92
2022-12-14T00:58:55.406Z,32.25
2022-12-14T01:01:24.142Z,32.15
2022-12-14T01:04:12.634Z,32.33
2022-12-14T01:06:40.852Z,31.13
2022-12-14T01:09:09.031Z,31.95
2022-12-14T01:11:38.568Z,33.20
2022-12-14T01:14:06.880Z,29.38
2022-12-14T01:16:35.034Z,29.52
2022-12-14T01:19:03.145Z,30.38
2022-12-14T01:21:31.373Z,30.55
2022-12-14T01:24:00.330Z,27.40
2022-12-14T01:26:28.817Z,28.33
2022-12-14T01:28:59.002Z,28.83
2022-12-14T01:31:27.946Z,28.75
2022-12-14T01:33:56.099Z,26.27
2022-12-14T01:36:24.956Z,26.25
2022-12-14T01:38:54.158Z,25.73
2022-12-14T01:41:25.128Z,27.80
2022-12-14T01:43:54.139Z,24.90
2022-12-14T01:46:28.638Z,24.25
2022-12-14T01:49:00.167Z,25.25
2022-12-14T01:51:28.483Z,25.23
2022-12-14T01:53:56.634Z,25.23
2022-12-14T01:56:24.750Z,24.02
2022-12-14T01:58:52.907Z,23.88
2022-12-14T02:01:21.161Z,22.48
2022-12-14T02:03:51.788Z,22.15
2022-12-14T02:06:21.874Z,21.77
2022-12-14T02:08:50.184Z,22.25
2022-12-14T02:11:18.872Z,22.10
2022-12-14T02:13:48.767Z,22.80
2022-12-14T02:16:17.121Z,22.20
2022-12-14T02:18:45.231Z,22.42
2022-12-14T02:21:32.214Z,21.98
2022-12-14T02:24:20.921Z,20.35
2022-12-14T02:26:57.360Z,21.35
2022-12-14T02:29:32.737Z,20.73
2022-12-14T02:32:06.474Z,20.17
2022-12-14T02:34:37.999Z,20.90
2022-12-14T02:37:11.243Z,19.55
2022-12-14T02:39:42.513Z,19.65
2022-12-14T02:42:12.253Z,18.70
2022-12-14T02:44:49.068Z,19.15
2022-12-14T02:47:19.438Z,19.90
2022-12-14T02:49:53.981Z,19.60
2022-12-14T02:52:30.845Z,18.88
2022-12-14T02:55:01.033Z,18.10
2022-12-14T02:57:30.852Z,19.08
2022-12-14T03:00:02.017Z,17.73
2022-12-14T03:02:30.507Z,18.00
2022-12-14T03:04:59.568Z,18.35
2022-12-14T03:07:32.952Z,18.13
2022-12-14T03:10:02.580Z,17.20
2022-12-14T03:12:30.935Z,17.83
2022-12-14T03:15:00.744Z,16.95
2022-12-14T03:17:31.097Z,16.48
2022-12-14T03:20:00.967Z,17.05
2022-12-14T03:22:31.455Z,15.80
2022-12-14T03:25:01.800Z,15.65
2022-12-14T03:27:31.597Z,15.75
2022-12-14T03:30:05.004Z,16.65
2022-12-14T03:32:33.384Z,15.80
2022-12-14T03:35:02.877Z,15.02
2022-12-14T03:37:34.109Z,16.95
2022-12-14T03:40:02.481Z,16.80
2022-12-14T03:42:33.234Z,15.70
2022-12-14T03:45:05.639Z,14.77
2022-12-14T03:47:45.396Z,14.93
2022-12-14T03:50:16.110Z,14.48
2022-12-14T03:52:45.905Z,14.07
2022-12-14T03:55:21.909Z,14.50
2022-12-14T03:57:59.442Z,14.65
2022-12-14T04:00:28.981Z,13.43
2022-12-14T04:03:00.892Z,13.75
2022-12-14T04:05:32.434Z,13.25
2022-12-14T04:08:04.344Z,11.43
2022-12-14T04:10:53.465Z,12.05
2022-12-14T04:13:41.331Z,12.52
2022-12-14T04:16:30.377Z,13.45
2022-12-14T04:19:01.011Z,12.20
2022-12-14T04:21:35.871Z,12.98
2022-12-14T04:24:25.509Z,12.98
2022-12-14T04:26:55.996Z,12.90
2022-12-14T04:29:47.336Z,11.95
2022-12-14T04:32:19.046Z,11.13
2022-12-14T04:34:48.756Z,11.68
2022-12-14T04:37:17.638Z,11.80
2022-12-14T04:39:47.067Z,12.07
2022-12-14T04:42:15.248Z,12.60
2022-12-14T04:44:43.940Z,10.85
2022-12-14T04:47:12.639Z,10.95
2022-12-14T04:49:43.968Z,11.60
2022-12-14T04:52:13.819Z,11.80
2022-12-14T04:54:42.846Z,10.38
2022-12-14T04:57:17.362Z,12.65
2022-12-14T04:59:47.149Z,10.25
2022-12-14T05:02:20.151Z,11.75
2022-12-14T05:04:56.024Z,11.13
2022-12-14T05:07:33.418Z,12.07
2022-12-14T05:10:03.203Z,12.02
2022-12-14T05:12:33.217Z,10.45
2022-12-14T05:15:04.538Z,10.70
2022-12-14T05:17:32.645Z,10.55
2022-12-14T05:20:02.123Z,10.32
2022-12-14T05:22:30.296Z,9.73
2022-12-14T05:24:58.548Z,10.88
2022-12-14T05:27:26.701Z,10.73
2022-12-14T05:29:54.830Z,12.95
2022-12-14T05:32:22.989Z,10.38
2022-12-14T05:34:51.177Z,10.65
2022-12-14T05:37:20.729Z,10.15
2022-12-14T05:39:48.886Z,10.93
2022-12-14T05:42:17.048Z,9.52
2022-12-14T05:44:45.171Z,9.07
2022-12-14T05:47:13.245Z,10.82
2022-12-14T05:49:41.375Z,9.32
2022-12-14T05:52:09.778Z,9.60
2022-12-14T05:54:39.292Z,10.35
2022-12-14T05:57:08.004Z,9.80
2022-12-14T05:59:36.190Z,9.40
2022-12-14T06:02:04.404Z,9.13
2022-12-14T06:04:32.903Z,9.45
2022-12-14T06:07:01.132Z,9.88
2022-12-14T06:09:29.305Z,9.35
2022-12-14T06:11:58.804Z,9.48
2022-12-14T06:14:26.960Z,9.50
2022-12-14T06:16:55.395Z,9.20
2022-12-14T06:19:23.517Z,9.18
2022-12-14T06:21:51.618Z,8.45
2022-12-14T06:24:20.013Z,8.65
2022-12-14T06:26:48.137Z,9.27
2022-12-14T06:29:19.771Z,8.13
2022-12-14T06:31:49.143Z,9.02
2022-12-14T06:34:17.767Z,9.52
2022-12-14T06:36:46.935Z,10.27
2022-12-14T06:39:16.059Z,8.57
2022-12-14T06:41:44.454Z,8.25
2022-12-14T06:44:13.435Z,8.50
2022-12-14T06:46:43.188Z,8.57
2022-12-14T06:49:13.490Z,8.07
2022-12-14T06:51:41.617Z,8.50
2022-12-14T06:54:11.011Z,8.95
2022-12-14T06:56:39.198Z,10.32
2022-12-14T06:59:08.702Z,7.60
2022-12-14T07:01:37.236Z,8.55
2022-12-14T07:04:06.954Z,8.93
2022-12-14T07:06:36.542Z,8.20
2022-12-14T07:09:05.442Z,8.15
2022-12-14T07:11:33.546Z,7.57
2022-12-14T07:14:05.972Z,8.98
2022-12-14T07:16:34.502Z,7.65
2022-12-14T07:19:02.643Z,7.97
2022-12-14T07:21:32.340Z,7.97
2022-12-14T07:24:01.446Z,8.15
2022-12-14T07:26:30.435Z,8.18
2022-12-14T07:28:59.373Z,7.97
2022-12-14T07:31:28.433Z,8.43
2022-12-14T07:33:57.196Z,7.22
2022-12-14T07:36:25.803Z,7.93
2022-12-14T07:38:56.397Z,7.50
2022-12-14T07:41:25.714Z,7.60
2022-12-14T07:43:54.813Z,7.70
2022-12-14T07:46:26.065Z,7.90
2022-12-14T07:48:55.360Z,6.82
2022-12-14T07:51:24.544Z,7.05
2022-12-14T07:53:52.814Z,7.72
2022-12-14T07:56:23.272Z,7.60
2022-12-14T07:58:51.568Z,6.63
2022-12-14T08:01:21.117Z,8.00
2022-12-14T08:03:50.515Z,6.65
2022-12-14T08:06:19.227Z,8.07
2022-12-14T08:08:47.599Z,7.55
2022-12-14T08:11:18.677Z,7.53
2022-12-14T08:13:48.418Z,7.97
2022-12-14T08:16:17.274Z,8.38
2022-12-14T08:18:45.677Z,8.20
2022-12-14T08:21:14.360Z,7.43
2022-12-14T08:23:42.765Z,7.82
2022-12-14T08:26:11.222Z,10.25
2022-12-14T08:28:39.608Z,8.82
2022-12-14T08:31:09.986Z,10.63
2022-12-14T08:33:38.893Z,7.80
2022-12-14T08:36:08.680Z,11.30
2022-12-14T08:38:36.944Z,11.05
2022-12-14T08:41:05.344Z,12.77
2022-12-14T08:43:33.827Z,14.50
2022-12-14T08:46:02.044Z,17.67
2022-12-14T08:48:31.604Z,13.07
2022-12-14T08:51:02.715Z,17.70
2022-12-14T08:53:31.431Z,14.45
2022-12-14T08:56:00.047Z,17.35
2022-12-14T08:58:28.244Z,18.48
2022-12-14T09:01:03.268Z,23.23
2022-12-14T09:03:33.453Z,24.85
2022-12-14T09:06:05.111Z,18.75
2022-12-14T09:08:33.332Z,23.63
2022-12-14T09:11:01.516Z,24.90
2022-12-14T09:13:30.231Z,39.67
2022-12-14T09:16:00.053Z,36.55
2022-12-14T09:18:28.905Z,38.05
2022-12-14T09:20:58.656Z,40.38
2022-12-14T09:23:28.016Z,46.25
2022-12-14T09:26:00.635Z,47.90
2022-12-14T09:28:28.900Z,39.88
2022-12-14T09:30:57.997Z,38.50
2022-12-14T09:33:26.454Z,39.85
2022-12-14T09:35:56.012Z,38.72
2022-12-14T09:38:25.917Z,38.38
2022-12-14T09:40:56.973Z,40.63
2022-12-14T09:43:36.964Z,41.35
2022-12-14T09:46:14.294Z,40.20
2022-12-14T09:48:42.851Z,38.75
2022-12-14T09:51:13.718Z,37.88
2022-12-14T09:53:43.544Z,45.20
2022-12-14T09:56:14.349Z,45.08
2022-12-14T09:58:52.689Z,50.13
2022-12-14T10:01:34.126Z,46.08
2022-12-14T10:04:04.437Z,46.60
2022-12-14T10:06:35.953Z,44.88
2022-12-14T10:09:11.446Z,46.88
2022-12-14T10:11:42.428Z,44.95
2022-12-14T10:14:14.988Z,50.05
2022-12-14T10:16:51.826Z,53.08
2022-12-14T10:19:27.164Z,58.90
2022-12-14T10:21:56.553Z,57.28
2022-12-14T10:24:27.411Z,51.35
2022-12-14T10:26:56.207Z,61.40
2022-12-14T10:29:32.169Z,51.72
2022-12-14T10:32:05.398Z,51.25
2022-12-14T10:34:34.723Z,51.28
2022-12-14T10:37:07.546Z,49.25
2022-12-14T10:39:41.776Z,48.97
2022-12-14T10:42:13.212Z,49.58
2022-12-14T10:44:51.484Z,48.20
2022-12-14T10:47:27.410Z,45.08
2022-12-14T10:49:57.608Z,48.17
2022-12-14T10:52:27.727Z,44.95
2022-12-14T10:54:58.302Z,48.20
2022-12-14T10:57:27.467Z,47.08
2022-12-14T11:00:10.902Z,55.13
2022-12-14T11:02:41.370Z,50.38
2022-12-14T11:05:25.050Z,49.28
2022-12-14T11:07:53.150Z,55.28
2022-12-14T11:10:24.185Z,58.33
2022-12-14T11:13:01.116Z,65.45
2022-12-14T11:15:31.534Z,54.05
2022-12-14T11:18:05.781Z,54.28
2022-12-14T11:20:34.310Z,58.70
2022-12-14T11:23:08.464Z,53.05
2022-12-14T11:25:40.058Z,59.63
2022-12-14T11:28:21.997Z,65.88
2022-12-14T11:31:04.219Z,62.00
2022-12-14T11:33:34.791Z,60.42
2022-12-14T11:36:02.985Z,60.47
2022-12-14T11:38:31.748Z,49.90
2022-12-14T11:41:08.924Z,47.65
2022-12-14T11:43:39.758Z,44.88
2022-12-14T11:46:07.991Z,43.10
2022-12-14T11:48:38.604Z,43.65
2022-12-14T11:51:11.215Z,46.13
2022-12-14T11:53:39.718Z,39.10
2022-12-14T11:56:10.316Z,41.28
2022-12-14T11:58:39.574Z,40.60
2022-12-14T12:01:12.308Z,39.42
2022-12-14T12:03:42.887Z,39.42
2022-12-14T12:06:12.496Z,36.63
2022-12-14T12:08:41.185Z,43.25
2022-12-14T12:11:17.707Z,37.35
2022-12-14T12:13:48.008Z,39.50
2022-12-14T12:16:17.380Z,38.88
2022-12-14T12:18:47.030Z,34.15
2022-12-14T12:21:17.497Z,39.40
2022-12-14T12:23:47.587Z,55.67
2022-12-14T12:26:19.602Z,72.28
2022-12-14T12:28:49.778Z,58.95
2022-12-14T12:31:22.111Z,55.30
2022-12-14T12:33:51.698Z,61.72
2022-12-14T12:36:24.034Z,60.78
2022-12-14T12:39:04.912Z,67.93
2022-12-14T12:41:44.707Z,78.95
2022-12-14T12:44:24.545Z,73.70
2022-12-14T12:47:23.451Z,76.18
2022-12-14T12:49:46.213Z,74.55
2022-12-14T12:52:18.873Z,82.07
2022-12-14T12:54:50.671Z,80.53
2022-12-14T12:57:20.193Z,79.90
2022-12-14T12:59:49.686Z,81.97
2022-12-14T13:02:23.605Z,87.88
2022-12-14T13:04:52.916Z,94.00
2022-12-14T13:07:29.623Z,80.50
2022-12-14T13:10:05.254Z,80.78
2022-12-14T13:12:38.121Z,80.22
2022-12-14T13:15:09.134Z,89.78
2022-12-14T13:17:39.447Z,94.07
2022-12-14T13:20:15.530Z,98.50
2022-12-14T13:22:43.954Z,103.85
2022-12-14T13:25:18.649Z,99.80
2022-12-14T13:28:00.903Z,103.45
2022-12-14T13:30:40.731Z,103.97
2022-12-14T13:33:26.169Z,110.10
2022-12-14T13:36:10.153Z,124.38
2022-12-14T13:38:50.669Z,120.90
2022-12-14T13:41:28.872Z,125.63
2022-12-14T13:44:22.776Z,131.20
2022-12-14T13:46:58.506Z,126.68
2022-12-14T13:49:26.659Z,128.23
2022-12-14T13:51:55.394Z,125.95
2022-12-14T13:54:27.884Z,125.13
2022-12-14T13:57:04.064Z,127.15
2022-12-14T13:59:35.611Z,124.47
2022-12-14T14:02:03.949Z,133.50
2022-12-14T14:04:32.330Z,130.57
2022-12-14T14:07:33.772Z,130.80
2022-12-14T14:10:04.308Z,133.48
2022-12-14T14:12:47.217Z,129.88
2022-12-14T14:18:36.523Z,132.88
2022-12-14T14:21:38.842Z,124.40
2022-12-14T14:24:22.356Z,128.85
2022-12-14T14:27:01.414Z,123.15
2022-12-14T14:29:29.645Z,126.47
2022-12-14T14:32:00.654Z,126.63
2022-12-14T14:34:47.681Z,120.60
2022-12-14T14:37:31.627Z,118.50
2022-12-14T14:40:26.328Z,122.95
2022-12-14T14:43:04.451Z,125.47
2022-12-14T14:45:36.053Z,116.53
2022-12-14T14:48:11.137Z,120.18
2022-12-14T14:50:40.772Z,117.45
2022-12-14T14:53:14.584Z,114.70
2022-12-14T14:56:14.728Z,117.10
2022-12-14T14:58:43.329Z,111.28
2022-12-14T15:01:20.366Z,111.18
2022-12-14T15:03:57.869Z,114.68
2022-12-14T15:06:27.660Z,105.78
2022-12-14T15:09:01.385Z,105.28
2022-12-14T15:11:29.877Z,98.85
2022-12-14T15:14:00.219Z,99.25
2022-12-14T15:16:32.916Z,96.40
2022-12-14T15:19:28.012Z,97.22
2022-12-14T15:21:57.738Z,98.47
2022-12-14T15:24:26.106Z,95.13
2022-12-14T15:26:54.445Z,90.47
2022-12-14T15:29:25.149Z,93.60
2022-12-14T15:31:59.656Z,86.65
2022-12-14T15:34:29.752Z,82.95
2022-12-14T15:36:58.767Z,82.43
2022-12-14T15:39:36.206Z,78.03
2022-12-14T15:42:15.171Z,76.70
2022-12-14T15:44:51.636Z,76.03
2022-12-14T15:47:23.740Z,72.82
2022-12-14T15:49:57.694Z,72.07
2022-12-14T15:52:30.955Z,68.88
2022-12-14T15:54:59.457Z,72.63
2022-12-14T15:57:27.597Z,70.57
2022-12-14T15:59:56.113Z,66.53
2022-12-14T16:02:26.093Z,67.93
2022-12-14T16:04:56.450Z,67.25
2022-12-14T16:07:25.877Z,65.00
2022-12-14T16:09:55.699Z,64.15
2022-12-14T16:12:26.723Z,67.47
2022-12-14T16:14:56.920Z,67.50
2022-12-14T16:17:27.793Z,69.43
2022-12-14T16:20:02.516Z,67.47
2022-12-14T16:22:30.768Z,68.78
2022-12-14T16:25:17.521Z,68.70
2022-12-14T16:27:47.012Z,70.10
2022-12-14T16:30:21.893Z,67.13
2022-12-14T16:32:51.301Z,63.65
2022-12-14T16:35:22.144Z,61.95
2022-12-14T16:37:51.617Z,61.25
2022-12-14T16:40:29.823Z,59.50
2022-12-14T16:42:57.982Z,54.50
2022-12-14T16:46:08.039Z,55.95
2022-12-14T16:48:37.844Z,55.97
2022-12-14T16:51:50.872Z,57.13
2022-12-14T16:54:23.716Z,54.70
2022-12-14T16:56:54.267Z,54.13
2022-12-14T16:59:23.370Z,48.90
2022-12-14T17:01:51.630Z,53.83
2022-12-14T17:04:20.092Z,48.88
2022-12-14T17:06:50.860Z,46.15
2022-12-14T17:09:21.149Z,42.38
2022-12-14T17:11:49.353Z,41.85
2022-12-14T17:14:17.751Z,44.05
2022-12-14T17:16:46.002Z,43.55
2022-12-14T17:19:21.317Z,42.20
2022-12-14T17:21:51.632Z,45.25
2022-12-14T17:24:22.018Z,42.65
2022-12-14T17:26:50.734Z,39.55
2022-12-14T17:29:23.815Z,40.47
2022-12-14T17:31:52.950Z,40.85
2022-12-14T17:34:21.124Z,43.75
2022-12-14T17:36:49.564Z,56.50
2022-12-14T17:39:20.413Z,66.47
2022-12-14T17:41:48.604Z,62.25
2022-12-14T17:44:17.942Z,55.65
2022-12-14T17:46:48.587Z,54.40
2022-12-14T17:49:33.815Z,56.83
2022-12-14T17:52:02.616Z,57.83
2022-12-14T17:54:32.534Z,57.72
2022-12-14T17:57:00.879Z,55.35
2022-12-14T17:59:29.217Z,52.28
2022-12-14T18:01:57.449Z,55.47
2022-12-14T18:04:26.093Z,53.58
2022-12-14T18:06:54.229Z,56.63
2022-12-14T18:09:22.525Z,51.58
2022-12-14T18:12:21.788Z,53.88
2022-12-14T18:14:40.089Z,53.97
2022-12-14T18:17:11.424Z,52.78
2022-12-14T18:19:39.944Z,47.47
2022-12-14T18:22:08.398Z,54.28
2022-12-14T18:24:36.608Z,47.65
2022-12-14T18:27:06.544Z,56.83
2022-12-14T18:29:34.694Z,64.10
2022-12-14T18:32:03.009Z,79.43
2022-12-14T18:34:31.161Z,62.08
2022-12-14T18:36:59.301Z,58.83
2022-12-14T18:39:27.422Z,60.22
2022-12-14T18:41:55.575Z,62.80
2022-12-14T18:44:25.068Z,62.63
2022-12-14T18:46:53.304Z,64.70
2022-12-14T18:49:21.863Z,61.78
2022-12-14T18:51:50.056Z,59.65
2022-12-14T18:54:18.210Z,61.45
2022-12-14T18:56:46.362Z,63.58
2022-12-14T18:59:18.185Z,68.20
2022-12-14T19:01:47.814Z,60.05
2022-12-14T19:04:16.179Z,63.85
2022-12-14T19:06:46.112Z,63.72
2022-12-14T19:09:14.704Z,64.20
2022-12-14T19:11:42.858Z,62.90
2022-12-14T19:14:11.399Z,66.70
2022-12-14T19:16:39.689Z,61.28
2022-12-14T19:19:09.320Z,60.83
2022-12-14T19:21:37.560Z,58.83
2022-12-14T19:24:08.562Z,60.70
2022-12-14T19:26:38.804Z,58.90
2022-12-14T19:29:06.991Z,57.72
2022-12-14T19:31:35.181Z,56.55
2022-12-14T19:34:03.404Z,57.97
2022-12-14T19:36:32.899Z,54.95
2022-12-14T19:39:01.116Z,54.83
2022-12-14T19:41:29.269Z,52.65
2022-12-14T19:43:57.550Z,52.97
2022-12-14T19:46:25.740Z,51.55
2022-12-14T19:48:53.994Z,51.05
2022-12-14T19:51:22.862Z,50.60
2022-12-14T19:53:52.967Z,55.00
2022-12-14T19:56:21.152Z,61.10
2022-12-14T19:58:49.871Z,60.13
2022-12-14T20:01:18.312Z,58.42
2022-12-14T20:03:46.751Z,59.65
2022-12-14T20:06:15.162Z,58.75
2022-12-14T20:08:43.442Z,57.58
2022-12-14T20:11:13.157Z,57.95
2022-12-14T20:13:41.440Z,56.33
2022-12-14T20:16:15.761Z,56.65
2022-12-14T20:18:44.098Z,51.83
2022-12-14T20:21:15.012Z,55.70
2022-12-14T20:23:47.297Z,53.13
2022-12-14T20:26:17.713Z,54.33
2022-12-14T20:28:47.958Z,56.42
2022-12-14T20:31:17.588Z,58.15
2022-12-14T20:33:45.997Z,63.30
2022-12-14T20:36:14.285Z,61.90
2022-12-14T20:38:42.426Z,59.25
2022-12-14T20:41:11.611Z,59.20
2022-12-14T20:43:42.106Z,59.53
2022-12-14T20:46:27.172Z,57.88
2022-12-14T20:48:56.460Z,56.00
2022-12-14T20:51:24.597Z,57.15
2022-12-14T20:53:52.757Z,56.10
2022-12-14T20:56:21.815Z,55.63
2022-12-14T20:58:51.440Z,57.33
2022-12-14T21:01:19.786Z,56.85
2022-12-14T21:03:48.185Z,58.50
2022-12-14T21:06:16.469Z,61.70
2022-12-14T21:09:05.206Z,62.55
2022-12-14T21:11:51.787Z,62.33
2022-12-14T21:14:21.510Z,68.13
2022-12-14T21:16:49.955Z,70.78
2022-12-14T21:19:18.269Z,62.42
2022-12-14T21:21:53.067Z,64.88
2022-12-14T21:24:44.787Z,62.75
2022-12-14T21:27:10.534Z,64.82
2022-12-14T21:29:40.137Z,60.65
2022-12-14T21:32:08.564Z,63.60
2022-12-14T21:34:36.825Z,65.18
2022-12-14T21:37:05.545Z,65.63
2022-12-14T21:39:33.679Z,66.28
2022-12-14T21:42:15.809Z,67.40
2022-12-14T21:44:46.359Z,71.88
2022-12-14T21:47:15.509Z,68.97
2022-12-14T21:49:44.395Z,67.75
2022-12-14T21:52:13.518Z,70.68
2022-12-14T21:54:41.730Z,75.15
2022-12-14T21:57:31.168Z,74.82
2022-12-14T22:00:00.759Z,74.15
2022-12-14T22:02:29.520Z,71.20
2022-12-14T22:04:57.821Z,73.40
2022-12-14T22:07:27.093Z,79.25
2022-12-14T22:09:55.353Z,81.57
2022-12-14T22:12:23.459Z,73.20
2022-12-14T22:14:51.671Z,74.90
2022-12-14T22:17:21.192Z,74.88
2022-12-14T22:19:51.013Z,71.78
2022-12-14T22:22:19.282Z,78.20
2022-12-14T22:24:49.811Z,82.57
2022-12-14T22:27:18.078Z,72.57
2022-12-14T22:29:46.188Z,72.82
2022-12-14T22:32:14.778Z,75.25
2022-12-14T22:34:45.185Z,73.85
2022-12-14T22:37:14.778Z,69.57
2022-12-14T22:39:42.896Z,70.60
2022-12-14T22:42:11.043Z,70.68
2022-12-14T22:44:39.206Z,74.97
2022-12-14T22:47:07.323Z,73.22
2022-12-14T22:49:35.463Z,73.18
2022-12-14T22:52:05.450Z,72.80
2022-12-14T22:54:33.708Z,67.70
2022-12-14T22:57:02.854Z,70.18
2022-12-14T22:59:31.653Z,69.60
2022-12-14T23:01:59.983Z,68.47
2022-12-14T23:04:28.299Z,67.07
2022-12-14T23:06:56.532Z,69.22
2022-12-14T23:09:43.769Z,67.95
2022-12-14T23:12:29.139Z,69.60
2022-12-14T23:15:14.446Z,66.93
2022-12-14T23:17:59.678Z,63.00
2022-12-14T23:20:45.389Z,64.40
2022-12-14T23:23:31.220Z,62.72
2022-12-14T23:26:21.273Z,63.72
2022-12-14T23:29:06.564Z,63.10
2022-12-14T23:31:52.010Z,61.38
2022-12-14T23:34:37.845Z,60.90
2022-12-14T23:37:23.467Z,62.95
2022-12-14T23:40:08.730Z,59.83
2022-12-14T23:42:55.459Z,60.30
2022-12-14T23:45:41.037Z,58.97
2022-12-14T23:48:26.386Z,57.60
2022-12-14T23:51:11.947Z,56.70
2022-12-14T23:53:57.428Z,56.90
2022-12-14T23:56:42.939Z,52.30
2022-12-14T23:59:32.617Z,55.95
